createdAt,value
2018-05-14T00:00:06.820Z,5.67
2018-05-14T00:02:35.668Z,5.90
2018-05-14T00:05:04.537Z,6.30
2018-05-14T00:07:33.401Z,5.57
2018-05-14T00:10:02.276Z,5.73
2018-05-14T00:12:31.225Z,5.83
2018-05-14T00:15:00.081Z,5.50
2018-05-14T00:17:28.953Z,4.83
2018-05-14T00:19:57.806Z,5.50
2018-05-14T00:22:26.860Z,5.30
2018-05-14T00:24:55.882Z,5.60
2018-05-14T00:27:24.761Z,5.43
2018-05-14T00:29:53.924Z,5.30
2018-05-14T00:32:22.798Z,5.43
2018-05-14T00:34:51.841Z,5.27
2018-05-14T00:37:21.571Z,5.87
2018-05-14T00:39:50.447Z,5.30
2018-05-14T00:42:19.506Z,5.60
2018-05-14T00:44:48.358Z,5.33
2018-05-14T00:47:17.255Z,5.03
2018-05-14T00:49:46.145Z,5.57
2018-05-14T00:52:15.001Z,5.10
2018-05-14T00:54:49.794Z,5.87
2018-05-14T00:57:18.672Z,5.23
2018-05-14T00:59:47.549Z,5.37
2018-05-14T01:02:16.477Z,5.00
2018-05-14T01:04:45.340Z,5.40
2018-05-14T01:07:14.360Z,5.40
2018-05-14T01:09:43.233Z,4.80
2018-05-14T01:12:12.109Z,5.77
2018-05-14T01:14:41.045Z,5.27
2018-05-14T01:17:09.926Z,5.00
2018-05-14T01:19:38.831Z,5.47
2018-05-14T01:22:07.708Z,5.60
2018-05-14T01:24:36.568Z,5.03
2018-05-14T01:27:05.457Z,5.20
2018-05-14T01:29:34.328Z,5.33
2018-05-14T01:32:03.203Z,5.27
2018-05-14T01:34:32.372Z,5.27
2018-05-14T01:37:01.367Z,4.80
2018-05-14T01:39:30.365Z,5.07
2018-05-14T01:41:59.261Z,5.03
2018-05-14T01:44:28.120Z,5.30
2018-05-14T01:46:56.996Z,4.83
2018-05-14T01:49:25.897Z,4.77
2018-05-14T01:51:54.761Z,5.50
2018-05-14T01:54:23.640Z,4.87
2018-05-14T01:56:52.541Z,5.70
2018-05-14T01:59:21.485Z,4.87
2018-05-14T02:01:50.341Z,5.13
2018-05-14T02:04:19.217Z,5.27
2018-05-14T02:06:48.134Z,4.70
2018-05-14T02:09:17.056Z,5.43
2018-05-14T02:11:45.956Z,4.40
2018-05-14T02:14:14.968Z,4.70
2018-05-14T02:16:43.818Z,5.50
2018-05-14T02:19:12.825Z,4.93
2018-05-14T02:21:41.677Z,4.50
2018-05-14T02:24:10.531Z,4.83
2018-05-14T02:26:39.424Z,4.50
2018-05-14T02:29:08.279Z,4.87
2018-05-14T02:31:37.158Z,4.60
2018-05-14T02:34:06.025Z,4.50
2018-05-14T02:36:34.873Z,4.80
2018-05-14T02:39:03.785Z,4.83
2018-05-14T02:41:32.670Z,4.50
2018-05-14T02:44:01.516Z,4.47
2018-05-14T02:46:30.369Z,4.87
2018-05-14T02:48:59.265Z,4.47
2018-05-14T02:51:28.133Z,4.37
2018-05-14T02:53:57.029Z,5.03
2018-05-14T02:56:25.912Z,4.80
2018-05-14T02:58:54.759Z,4.47
2018-05-14T03:01:23.613Z,5.43
2018-05-14T03:03:52.518Z,4.87
2018-05-14T03:06:21.368Z,4.53
2018-05-14T03:08:50.219Z,4.60
2018-05-14T03:11:19.126Z,4.63
2018-05-14T03:13:48.005Z,5.17
2018-05-14T03:16:16.867Z,4.93
2018-05-14T03:18:45.764Z,4.80
2018-05-14T03:21:14.805Z,4.60
2018-05-14T03:23:43.660Z,4.63
2018-05-14T03:26:12.536Z,4.80
2018-05-14T03:28:41.399Z,4.50
2018-05-14T03:31:10.277Z,4.47
2018-05-14T03:33:39.153Z,4.37
2018-05-14T03:36:08.004Z,4.63
2018-05-14T03:38:36.856Z,4.70
2018-05-14T03:41:05.733Z,4.30
2018-05-14T03:43:34.614Z,4.80
2018-05-14T03:46:03.525Z,4.77
2018-05-14T03:48:32.511Z,4.20
2018-05-14T03:51:01.362Z,4.70
2018-05-14T03:53:30.245Z,4.80
2018-05-14T03:55:59.132Z,4.43
2018-05-14T03:58:33.873Z,4.77
2018-05-14T04:01:08.846Z,4.20
2018-05-14T04:03:43.474Z,4.40
2018-05-14T04:06:18.261Z,4.90
2018-05-14T04:08:47.121Z,4.83
2018-05-14T04:11:15.968Z,4.43
2018-05-14T04:13:44.860Z,4.70
2018-05-14T04:16:13.724Z,4.50
2018-05-14T04:18:42.585Z,4.77
2018-05-14T04:21:11.460Z,4.50
2018-05-14T04:23:40.312Z,5.27
2018-05-14T04:26:09.162Z,4.57
2018-05-14T04:28:38.029Z,4.97
2018-05-14T04:31:06.876Z,4.50
2018-05-14T04:33:35.808Z,5.13
2018-05-14T04:36:04.677Z,5.17
2018-05-14T04:38:33.528Z,4.87
2018-05-14T04:41:02.405Z,5.07
2018-05-14T04:43:31.273Z,5.57
2018-05-14T04:46:00.209Z,4.80
2018-05-14T04:48:29.031Z,4.93
2018-05-14T04:50:57.920Z,4.90
2018-05-14T04:53:26.804Z,4.93
2018-05-14T04:55:55.689Z,4.47
2018-05-14T04:58:24.585Z,5.10
2018-05-14T05:00:53.476Z,5.47
2018-05-14T05:03:22.328Z,4.80
2018-05-14T05:05:51.389Z,5.10
2018-05-14T05:08:20.281Z,5.43
2018-05-14T05:10:49.140Z,4.90
2018-05-14T05:13:18.009Z,5.20
2018-05-14T05:15:46.865Z,4.67
2018-05-14T05:18:15.718Z,4.83
2018-05-14T05:20:44.595Z,5.07
2018-05-14T05:23:13.470Z,4.73
2018-05-14T05:25:42.329Z,4.93
2018-05-14T05:28:11.325Z,4.40
2018-05-14T05:30:40.285Z,4.50
2018-05-14T05:33:09.161Z,5.07
2018-05-14T05:35:38.056Z,4.90
2018-05-14T05:38:06.901Z,4.70
2018-05-14T05:40:35.973Z,4.80
2018-05-14T05:43:04.868Z,4.70
2018-05-14T05:45:33.960Z,4.43
2018-05-14T05:48:02.851Z,4.77
2018-05-14T05:50:31.721Z,5.07
2018-05-14T05:53:00.762Z,4.80
2018-05-14T05:55:29.628Z,5.07
2018-05-14T05:57:58.497Z,5.00
2018-05-14T06:00:27.362Z,4.93
2018-05-14T06:02:56.208Z,4.40
2018-05-14T06:05:25.295Z,4.63
2018-05-14T06:07:54.290Z,4.70
2018-05-14T06:10:23.430Z,4.70
2018-05-14T06:12:52.333Z,4.43
2018-05-14T06:15:21.230Z,4.63
2018-05-14T06:17:50.109Z,5.00
2018-05-14T06:20:18.984Z,4.73
2018-05-14T06:22:47.865Z,4.47
2018-05-14T06:25:16.713Z,4.63
2018-05-14T06:27:45.610Z,4.90
2018-05-14T06:30:14.464Z,5.20
2018-05-14T06:32:43.515Z,4.63
2018-05-14T06:35:12.608Z,4.97
2018-05-14T06:37:41.499Z,4.77
2018-05-14T06:40:10.390Z,4.77
2018-05-14T06:42:39.592Z,5.63
2018-05-14T06:45:08.449Z,4.87
2018-05-14T06:47:37.489Z,4.77
2018-05-14T06:50:06.500Z,4.33
2018-05-14T06:52:35.380Z,4.63
2018-05-14T06:55:04.350Z,5.20
2018-05-14T06:57:33.204Z,4.90
2018-05-14T07:00:02.100Z,4.40
2018-05-14T07:02:30.941Z,4.70
2018-05-14T07:04:59.817Z,4.70
2018-05-14T07:07:28.692Z,4.40
2018-05-14T07:09:57.569Z,4.50
2018-05-14T07:12:26.523Z,4.60
2018-05-14T07:14:55.536Z,4.33
2018-05-14T07:17:24.504Z,4.80
2018-05-14T07:19:53.366Z,4.40
2018-05-14T07:22:22.310Z,5.40
2018-05-14T07:24:51.646Z,4.77
2018-05-14T07:27:20.458Z,4.87
2018-05-14T07:29:49.345Z,5.30
2018-05-14T07:32:18.221Z,4.43
2018-05-14T07:34:47.118Z,4.30
2018-05-14T07:37:15.994Z,4.73
2018-05-14T07:39:44.841Z,4.90
2018-05-14T07:42:13.709Z,4.50
2018-05-14T07:44:42.704Z,4.70
2018-05-14T07:47:11.688Z,4.70
2018-05-14T07:49:40.683Z,5.00
2018-05-14T07:52:09.533Z,5.57
2018-05-14T07:54:38.383Z,5.03
2018-05-14T07:57:07.255Z,4.60
2018-05-14T07:59:36.148Z,4.53
2018-05-14T08:02:05.007Z,4.63
2018-05-14T08:04:33.904Z,4.37
2018-05-14T08:07:02.749Z,4.37
2018-05-14T08:09:31.610Z,4.13
2018-05-14T08:12:00.503Z,4.23
2018-05-14T08:14:29.423Z,4.50
2018-05-14T08:16:58.292Z,4.20
2018-05-14T08:19:27.188Z,4.57
2018-05-14T08:21:56.063Z,4.77
2018-05-14T08:24:24.915Z,4.17
2018-05-14T08:26:54.157Z,4.40
2018-05-14T08:29:23.010Z,4.27
2018-05-14T08:31:52.205Z,3.97
2018-05-14T08:34:21.089Z,4.13
2018-05-14T08:36:50.095Z,3.87
2018-05-14T08:39:18.964Z,4.13
2018-05-14T08:41:47.833Z,4.00
2018-05-14T08:44:16.681Z,4.10
2018-05-14T08:46:45.772Z,4.33
2018-05-14T08:49:15.000Z,3.97
2018-05-14T08:51:43.853Z,4.33
2018-05-14T08:54:12.801Z,4.57
2018-05-14T08:56:41.600Z,3.80
2018-05-14T08:59:10.473Z,4.00
2018-05-14T09:01:39.350Z,4.50
2018-05-14T09:04:08.270Z,4.17
2018-05-14T09:06:37.157Z,4.03
2018-05-14T09:09:06.007Z,4.20
2018-05-14T09:11:34.924Z,3.77
2018-05-14T09:14:03.781Z,3.90
2018-05-14T09:16:32.722Z,4.37
2018-05-14T09:19:01.613Z,4.03
2018-05-14T09:21:30.493Z,4.30
2018-05-14T09:23:59.402Z,4.00
2018-05-14T09:26:28.373Z,3.93
2018-05-14T09:28:57.376Z,3.80
2018-05-14T09:31:26.343Z,4.17
2018-05-14T09:33:55.318Z,4.00
2018-05-14T09:36:24.208Z,4.07
2018-05-14T09:38:53.339Z,4.47
2018-05-14T09:41:22.213Z,4.53
2018-05-14T09:43:51.329Z,4.20
2018-05-14T09:46:20.399Z,4.03
2018-05-14T09:48:49.272Z,4.13
2018-05-14T09:51:18.129Z,4.03
2018-05-14T09:53:46.997Z,4.43
2018-05-14T09:56:15.933Z,4.20
2018-05-14T09:58:44.780Z,4.07
2018-05-14T10:01:13.681Z,4.30
2018-05-14T10:03:42.568Z,3.90
2018-05-14T10:06:11.609Z,3.90
2018-05-14T10:08:40.488Z,4.00
2018-05-14T10:11:09.366Z,4.27
2018-05-14T10:13:38.335Z,3.77
2018-05-14T10:16:07.327Z,4.03
2018-05-14T10:18:36.197Z,3.97
2018-05-14T10:21:05.047Z,3.80
2018-05-14T10:23:33.909Z,4.00
2018-05-14T10:26:02.798Z,3.60
2018-05-14T10:28:31.689Z,3.70
2018-05-14T10:31:00.597Z,3.60
2018-05-14T10:33:29.496Z,3.90
2018-05-14T10:35:58.573Z,3.60
2018-05-14T10:38:27.613Z,3.60
2018-05-14T10:40:56.612Z,3.73
2018-05-14T10:43:25.529Z,4.03
2018-05-14T10:45:54.387Z,3.80
2018-05-14T10:48:23.330Z,3.50
2018-05-14T10:50:52.182Z,3.80
2018-05-14T10:53:21.272Z,3.57
2018-05-14T10:55:50.149Z,3.80
2018-05-14T10:58:18.997Z,3.50
2018-05-14T11:00:47.924Z,4.10
2018-05-14T11:03:16.809Z,4.07
2018-05-14T11:05:45.732Z,3.73
2018-05-14T11:08:14.609Z,3.77
2018-05-14T11:10:43.653Z,4.20
2018-05-14T11:13:12.530Z,4.10
2018-05-14T11:15:41.417Z,4.07
2018-05-14T11:18:10.305Z,3.77
2018-05-14T11:20:39.185Z,3.67
2018-05-14T11:23:08.316Z,3.80
2018-05-14T11:25:37.309Z,4.40
2018-05-14T11:28:06.181Z,3.97
2018-05-14T11:30:35.061Z,3.93
2018-05-14T11:33:03.938Z,3.73
2018-05-14T11:35:32.799Z,3.67
2018-05-14T11:38:01.903Z,3.63
2018-05-14T11:40:30.782Z,4.00
2018-05-14T11:42:59.661Z,3.70
2018-05-14T11:45:28.580Z,3.77
2018-05-14T11:47:57.742Z,3.67
2018-05-14T11:50:26.592Z,3.37
2018-05-14T11:52:55.443Z,3.87
2018-05-14T11:55:24.314Z,3.80
2018-05-14T11:57:53.187Z,3.50
2018-05-14T12:00:22.113Z,3.43
2018-05-14T12:02:51.146Z,3.83
2018-05-14T12:05:19.945Z,3.73
2018-05-14T12:07:48.876Z,3.63
2018-05-14T12:10:17.760Z,4.03
2018-05-14T12:12:46.652Z,3.60
2018-05-14T12:15:15.636Z,3.30
2018-05-14T12:17:44.602Z,4.00
2018-05-14T12:20:13.524Z,3.60
2018-05-14T12:22:42.426Z,3.33
2018-05-14T12:25:11.323Z,3.50
2018-05-14T12:27:40.189Z,4.00
2018-05-14T12:30:09.306Z,3.73
2018-05-14T12:32:38.308Z,3.77
2018-05-14T12:35:07.180Z,3.60
2018-05-14T12:37:36.068Z,3.50
2018-05-14T12:40:04.946Z,3.60
2018-05-14T12:42:33.967Z,3.67
2018-05-14T12:45:02.837Z,3.67
2018-05-14T12:47:31.888Z,3.73
2018-05-14T12:50:00.746Z,3.87
2018-05-14T12:52:29.637Z,3.80
2018-05-14T12:54:58.603Z,3.60
2018-05-14T12:57:27.470Z,3.80
2018-05-14T12:59:56.384Z,3.87
2018-05-14T13:02:25.284Z,3.80
2018-05-14T13:04:54.160Z,3.80
2018-05-14T13:07:23.009Z,3.90
2018-05-14T13:09:51.877Z,3.70
2018-05-14T13:12:21.073Z,3.60
2018-05-14T13:14:50.013Z,3.37
2018-05-14T13:17:18.880Z,3.90
2018-05-14T13:19:47.777Z,3.80
2018-05-14T13:22:16.924Z,4.00
2018-05-14T13:24:45.805Z,3.60
2018-05-14T13:27:14.732Z,3.70
2018-05-14T13:29:43.841Z,3.93
2018-05-14T13:32:12.738Z,3.60
2018-05-14T13:34:41.606Z,3.70
2018-05-14T13:37:10.492Z,3.43
2018-05-14T13:39:39.368Z,3.67
2018-05-14T13:42:08.212Z,3.40
2018-05-14T13:44:37.091Z,3.43
2018-05-14T13:47:05.971Z,3.57
2018-05-14T13:49:34.829Z,3.83
2018-05-14T13:52:03.911Z,3.70
2018-05-14T13:54:32.811Z,3.80
2018-05-14T13:57:01.711Z,4.07
2018-05-14T13:59:30.653Z,3.90
2018-05-14T14:01:59.549Z,3.63
2018-05-14T14:04:28.457Z,3.87
2018-05-14T14:06:57.332Z,4.17
2018-05-14T14:09:26.253Z,3.90
2018-05-14T14:11:55.131Z,4.43
2018-05-14T14:14:23.984Z,4.80
2018-05-14T14:16:52.970Z,5.10
2018-05-14T14:19:21.965Z,5.70
2018-05-14T14:21:50.857Z,4.83
2018-05-14T14:24:19.881Z,4.80
2018-05-14T14:26:48.672Z,4.47
2018-05-14T14:29:17.635Z,4.37
2018-05-14T14:31:46.506Z,4.70
2018-05-14T14:34:15.413Z,4.67
2018-05-14T14:36:44.576Z,4.67
2018-05-14T14:39:13.461Z,4.40
2018-05-14T14:41:42.602Z,4.73
2018-05-14T14:44:11.473Z,4.63
2018-05-14T14:46:40.590Z,4.57
2018-05-14T14:49:09.531Z,4.43
2018-05-14T14:51:38.400Z,4.80
2018-05-14T14:54:07.493Z,4.50
2018-05-14T14:56:36.337Z,4.50
2018-05-14T14:59:05.353Z,4.67
2018-05-14T15:01:34.260Z,4.40
2018-05-14T15:04:03.137Z,4.23
2018-05-14T15:06:32.037Z,5.13
2018-05-14T15:09:00.918Z,4.17
2018-05-14T15:11:29.880Z,4.70
2018-05-14T15:13:59.021Z,4.77
2018-05-14T15:16:27.913Z,4.63
2018-05-14T15:18:56.794Z,4.43
2018-05-14T15:21:25.712Z,4.60
2018-05-14T15:23:54.571Z,4.50
2018-05-14T15:26:23.497Z,4.90
2018-05-14T15:28:52.354Z,4.90
2018-05-14T15:31:21.208Z,5.20
2018-05-14T15:33:50.244Z,4.83
2018-05-14T15:36:19.159Z,4.80
2018-05-14T15:38:48.238Z,4.87
2018-05-14T15:41:17.208Z,4.70
2018-05-14T15:43:45.992Z,4.93
2018-05-14T15:46:14.881Z,5.10
2018-05-14T15:48:43.765Z,5.10
2018-05-14T15:51:12.619Z,5.00
2018-05-14T15:53:41.492Z,5.17
2018-05-14T15:56:10.415Z,4.70
2018-05-14T15:58:39.241Z,5.40
2018-05-14T16:01:08.141Z,5.10
2018-05-14T16:03:36.996Z,4.87
2018-05-14T16:06:05.876Z,4.50
2018-05-14T16:08:34.784Z,4.13
2018-05-14T16:11:03.646Z,4.73
2018-05-14T16:13:32.502Z,4.30
2018-05-14T16:16:01.442Z,5.03
2018-05-14T16:18:30.299Z,4.70
2018-05-14T16:20:59.152Z,4.90
2018-05-14T16:23:28.029Z,4.90
2018-05-14T16:25:56.884Z,4.83
2018-05-14T16:28:25.978Z,4.57
2018-05-14T16:30:54.857Z,4.50
2018-05-14T16:33:23.774Z,4.27
2018-05-14T16:35:52.656Z,4.50
2018-05-14T16:38:21.505Z,4.30
2018-05-14T16:40:50.429Z,4.50
2018-05-14T16:43:19.309Z,4.70
2018-05-14T16:45:48.164Z,4.13
2018-05-14T16:48:17.061Z,4.60
2018-05-14T16:50:45.925Z,5.00
2018-05-14T16:53:14.813Z,4.27
2018-05-14T16:55:43.692Z,4.67
2018-05-14T16:58:12.546Z,4.23
2018-05-14T17:00:41.401Z,4.30
2018-05-14T17:03:10.296Z,3.97
2018-05-14T17:05:39.172Z,4.03
2018-05-14T17:08:08.126Z,4.23
2018-05-14T17:10:37.009Z,4.20
2018-05-14T17:13:06.004Z,4.00
2018-05-14T17:15:34.920Z,4.30
2018-05-14T17:18:03.797Z,4.40
2018-05-14T17:20:32.689Z,4.50
2018-05-14T17:23:01.623Z,4.40
2018-05-14T17:25:30.483Z,4.20
2018-05-14T17:27:59.365Z,4.20
2018-05-14T17:30:28.301Z,4.90
2018-05-14T17:32:57.159Z,4.27
2018-05-14T17:35:26.013Z,4.47
2018-05-14T17:37:55.023Z,4.43
2018-05-14T17:40:24.015Z,4.03
2018-05-14T17:42:52.961Z,4.40
2018-05-14T17:45:21.877Z,4.03
2018-05-14T17:47:50.732Z,4.67
2018-05-14T17:50:19.609Z,4.70
2018-05-14T17:52:48.660Z,4.03
2018-05-14T17:55:17.532Z,4.53
2018-05-14T17:57:46.666Z,4.20
2018-05-14T18:00:15.659Z,4.80
2018-05-14T18:02:44.524Z,4.50
2018-05-14T18:05:13.449Z,4.50
2018-05-14T18:07:42.297Z,4.60
2018-05-14T18:10:11.177Z,4.80
2018-05-14T18:12:40.628Z,4.40
2018-05-14T18:15:09.724Z,4.83
2018-05-14T18:17:38.592Z,4.30
2018-05-14T18:20:13.549Z,5.10
2018-05-14T18:22:42.733Z,4.80
2018-05-14T18:25:17.270Z,4.67
2018-05-14T18:27:51.805Z,4.50
2018-05-14T18:30:26.341Z,4.10
2018-05-14T18:33:01.768Z,4.83
2018-05-14T18:35:36.901Z,4.10
2018-05-14T18:38:05.795Z,4.23
2018-05-14T18:40:34.690Z,4.47
2018-05-14T18:43:03.600Z,4.87
2018-05-14T18:45:32.452Z,4.80
2018-05-14T18:48:01.312Z,4.60
2018-05-14T18:50:30.191Z,4.60
2018-05-14T18:52:59.083Z,4.93
2018-05-14T18:55:27.937Z,4.70
2018-05-14T18:57:56.881Z,5.10
2018-05-14T19:00:25.857Z,4.63
2018-05-14T19:02:54.715Z,4.60
2018-05-14T19:05:23.603Z,5.10
2018-05-14T19:07:52.484Z,4.60
2018-05-14T19:10:27.168Z,5.27
2018-05-14T19:12:56.072Z,4.67
2018-05-14T19:15:30.633Z,5.03
2018-05-14T19:17:59.657Z,4.77
2018-05-14T19:20:28.520Z,5.00
2018-05-14T19:23:03.041Z,5.00
2018-05-14T19:25:32.139Z,5.10
2018-05-14T19:28:06.865Z,5.30
2018-05-14T19:30:35.724Z,5.00
2018-05-14T19:33:04.569Z,5.03
2018-05-14T19:35:39.174Z,5.30
2018-05-14T19:38:08.025Z,5.37
2018-05-14T19:40:42.690Z,4.97
2018-05-14T19:43:11.684Z,5.03
2018-05-14T19:45:40.677Z,4.60
2018-05-14T19:48:09.626Z,4.80
2018-05-14T19:50:38.480Z,4.90
2018-05-14T19:53:07.325Z,4.97
2018-05-14T19:55:36.221Z,5.23
2018-05-14T19:58:05.105Z,5.03
2018-05-14T20:00:33.980Z,4.77
2018-05-14T20:03:02.888Z,4.40
2018-05-14T20:05:31.773Z,5.00
2018-05-14T20:08:00.657Z,4.37
2018-05-14T20:10:29.702Z,4.50
2018-05-14T20:12:58.609Z,4.63
2018-05-14T20:15:27.477Z,4.67
2018-05-14T20:17:56.377Z,4.53
2018-05-14T20:20:25.308Z,4.70
2018-05-14T20:22:54.259Z,5.10
2018-05-14T20:25:23.075Z,4.70
2018-05-14T20:27:51.961Z,4.70
2018-05-14T20:30:20.811Z,5.00
2018-05-14T20:32:49.750Z,4.73
2018-05-14T20:35:18.612Z,4.77
2018-05-14T20:37:47.470Z,4.47
2018-05-14T20:40:16.402Z,5.00
2018-05-14T20:42:45.388Z,4.57
2018-05-14T20:45:14.413Z,4.60
2018-05-14T20:47:43.269Z,4.83
2018-05-14T20:50:12.124Z,4.67
2018-05-14T20:52:41.057Z,4.77
2018-05-14T20:55:09.986Z,4.63
2018-05-14T20:57:38.837Z,4.40
2018-05-14T21:00:07.708Z,4.23
2018-05-14T21:02:36.628Z,4.53
2018-05-14T21:05:05.718Z,4.63
2018-05-14T21:07:34.710Z,4.53
2018-05-14T21:10:03.707Z,4.87
2018-05-14T21:12:32.616Z,4.83
2018-05-14T21:15:01.690Z,4.57
2018-05-14T21:17:30.693Z,4.83
2018-05-14T21:19:59.709Z,4.60
2018-05-14T21:22:28.570Z,4.80
2018-05-14T21:24:57.772Z,4.43
2018-05-14T21:27:26.665Z,4.40
2018-05-14T21:29:55.517Z,4.60
2018-05-14T21:32:24.408Z,4.33
2018-05-14T21:34:53.289Z,4.63
2018-05-14T21:37:22.177Z,4.70
2018-05-14T21:39:51.275Z,5.03
2018-05-14T21:42:20.177Z,4.93
2018-05-14T21:44:49.057Z,5.00
2018-05-14T21:47:17.924Z,4.97
2018-05-14T21:49:46.768Z,4.67
2018-05-14T21:52:15.630Z,5.20
2018-05-14T21:54:44.671Z,5.30
2018-05-14T21:57:13.676Z,5.93
2018-05-14T21:59:42.659Z,5.93
2018-05-14T22:02:11.593Z,5.53
2018-05-14T22:04:40.513Z,5.13
2018-05-14T22:07:09.376Z,5.77
2018-05-14T22:09:38.330Z,5.63
2018-05-14T22:12:07.253Z,5.70
2018-05-14T22:14:36.225Z,5.63
2018-05-14T22:17:05.308Z,5.70
2018-05-14T22:19:34.192Z,5.50
2018-05-14T22:22:03.041Z,5.60
2018-05-14T22:24:31.965Z,5.60
2018-05-14T22:27:00.851Z,5.30
2018-05-14T22:29:29.737Z,5.17
2018-05-14T22:31:58.613Z,5.40
2018-05-14T22:34:27.493Z,5.20
2018-05-14T22:36:56.371Z,5.37
2018-05-14T22:39:25.335Z,5.83
2018-05-14T22:41:54.174Z,5.30
2018-05-14T22:44:23.319Z,5.20
2018-05-14T22:46:52.208Z,5.30
2018-05-14T22:49:21.104Z,5.30
2018-05-14T22:51:49.981Z,5.57
2018-05-14T22:54:24.585Z,5.07
2018-05-14T22:56:53.488Z,5.13
2018-05-14T22:59:23.466Z,5.33
2018-05-14T23:01:52.341Z,5.47
2018-05-14T23:04:21.203Z,5.33
2018-05-14T23:06:50.076Z,5.30
2018-05-14T23:09:19.025Z,5.53
2018-05-14T23:11:48.029Z,5.30
2018-05-14T23:14:16.917Z,5.13
2018-05-14T23:16:46.080Z,5.47
2018-05-14T23:19:14.966Z,5.73
2018-05-14T23:21:43.868Z,5.40
2018-05-14T23:24:12.745Z,5.57
2018-05-14T23:26:41.597Z,5.50
2018-05-14T23:29:10.485Z,5.67
2018-05-14T23:31:39.361Z,5.43
2018-05-14T23:34:08.281Z,5.47
2018-05-14T23:36:37.162Z,5.40
2018-05-14T23:39:06.010Z,4.93
2018-05-14T23:41:34.889Z,5.30
2018-05-14T23:44:03.761Z,5.23
2018-05-14T23:46:32.616Z,5.13
2018-05-14T23:49:01.524Z,5.00
2018-05-14T23:51:30.425Z,5.00
2018-05-14T23:53:59.447Z,5.63
2018-05-14T23:56:28.340Z,5.07
2018-05-14T23:58:57.244Z,5.00
